Jacksonville, Florida
Current Conditions -  °F | °C
As of 8:56 PM on Thursday 20 Nov 2014 (Local Time) from KJAX Reporting Station
Scattered Clouds Scattered Clouds  
Wind Chill: 40°   Ceiling: Unl
Heat Index: 40°   Visibility: 10mi
Dew Point: 36°   Wind: 0mph
Humidity: 86%   Direction: NA
Pressure: 30.26"   Gusts: NA
Location:  30.32°N, 81.66°W
Report Text: KJAX 210156Z 00000KT 10SM SCT250 04/02 A3026 RMK AO2 SLP249 T00440022 $
Loading
Personal Weather Stations






























Interactive Weather Map New forecast layout! Learn more

10-Day Weather Forecast

Advertisements
Track Severe Weather on mobile